createdAt,value
2023-03-22T00:00:38.754Z,11.40
2023-03-22T00:03:07.427Z,11.40
2023-03-22T00:05:35.805Z,11.40
2023-03-22T00:08:07.010Z,11.40
2023-03-22T00:10:38.969Z,11.40
2023-03-22T00:13:08.766Z,11.40
2023-03-22T00:15:37.636Z,11.40
2023-03-22T00:18:06.410Z,11.50
2023-03-22T00:20:39.459Z,11.50
2023-03-22T00:23:09.198Z,11.50
2023-03-22T00:25:39.030Z,11.50
2023-03-22T00:28:07.553Z,11.50
2023-03-22T00:30:36.006Z,11.50
2023-03-22T00:33:04.438Z,11.50
2023-03-22T00:35:33.045Z,11.50
2023-03-22T00:38:14.108Z,11.50
2023-03-22T00:40:44.987Z,11.50
2023-03-22T00:43:13.609Z,11.60
2023-03-22T00:45:42.460Z,11.50
2023-03-22T00:48:12.823Z,11.50
2023-03-22T00:50:42.070Z,11.50
2023-03-22T00:53:10.479Z,11.50
2023-03-22T00:55:39.932Z,11.50
2023-03-22T00:58:09.834Z,11.60
2023-03-22T01:00:38.637Z,11.60
2023-03-22T01:03:07.376Z,11.60
2023-03-22T01:05:36.645Z,11.60
2023-03-22T01:08:08.626Z,11.60
2023-03-22T01:10:37.598Z,11.60
2023-03-22T01:13:07.831Z,11.60
2023-03-22T01:15:41.456Z,11.60
2023-03-22T01:18:10.974Z,11.60
2023-03-22T01:20:40.478Z,11.60
2023-03-22T01:23:09.175Z,11.60
2023-03-22T01:25:38.169Z,11.60
2023-03-22T01:28:07.835Z,11.60
2023-03-22T01:30:40.008Z,11.60
2023-03-22T01:33:11.999Z,11.60
2023-03-22T01:35:41.052Z,11.60
2023-03-22T01:38:12.107Z,11.60
2023-03-22T01:40:49.945Z,11.60
2023-03-22T01:43:18.841Z,11.60
2023-03-22T01:45:50.156Z,11.60
2023-03-22T01:48:26.391Z,11.60
2023-03-22T01:51:07.150Z,11.60
2023-03-22T01:53:46.700Z,11.60
2023-03-22T01:56:20.625Z,11.60
2023-03-22T01:58:51.024Z,11.60
2023-03-22T02:01:25.781Z,11.60
2023-03-22T02:04:02.071Z,11.60
2023-03-22T02:06:32.489Z,11.60
2023-03-22T02:09:09.369Z,11.60
2023-03-22T02:11:42.281Z,11.60
2023-03-22T02:14:56.954Z,11.60
2023-03-22T02:17:59.685Z,11.60
2023-03-22T02:21:07.207Z,11.60
2023-03-22T02:24:24.767Z,11.60
2023-03-22T02:27:28.593Z,11.60
2023-03-22T02:30:09.330Z,11.60
2023-03-22T02:32:55.560Z,11.60
2023-03-22T02:35:34.899Z,11.60
2023-03-22T02:38:46.888Z,11.60
2023-03-22T02:41:21.872Z,11.60
2023-03-22T02:44:01.981Z,11.60
2023-03-22T02:46:36.870Z,11.60
2023-03-22T02:49:13.036Z,11.60
2023-03-22T02:51:44.746Z,11.60
2023-03-22T02:54:19.591Z,11.60
2023-03-22T02:56:52.746Z,11.60
2023-03-22T02:59:24.227Z,11.60
2023-03-22T03:01:56.055Z,11.60
2023-03-22T03:04:29.670Z,11.60
2023-03-22T03:07:03.953Z,11.60
2023-03-22T03:09:34.213Z,11.60
2023-03-22T03:12:04.450Z,11.60
2023-03-22T03:14:34.241Z,11.60
2023-03-22T03:17:21.531Z,11.60
2023-03-22T03:20:00.819Z,11.60
2023-03-22T03:22:45.161Z,11.60
2023-03-22T03:25:24.888Z,11.60
2023-03-22T03:28:01.837Z,11.60
2023-03-22T03:30:35.932Z,11.60
2023-03-22T03:33:10.594Z,11.60
2023-03-22T03:35:44.307Z,11.70
2023-03-22T03:38:16.239Z,11.60
2023-03-22T03:40:48.270Z,11.70
2023-03-22T03:43:18.949Z,11.70
2023-03-22T03:45:47.487Z,11.70
2023-03-22T03:48:21.040Z,11.70
2023-03-22T03:50:51.484Z,11.70
2023-03-22T03:53:20.175Z,11.70
2023-03-22T03:55:48.709Z,11.70
2023-03-22T03:58:19.261Z,11.70
2023-03-22T04:00:49.935Z,11.70
2023-03-22T04:03:38.492Z,11.70
2023-03-22T04:06:28.838Z,11.70
2023-03-22T04:09:02.399Z,11.70
2023-03-22T04:11:34.523Z,11.80
2023-03-22T04:14:06.058Z,11.70
2023-03-22T04:16:35.002Z,11.80
2023-03-22T04:19:04.023Z,11.80
2023-03-22T04:21:32.501Z,11.80
2023-03-22T04:24:03.119Z,11.80
2023-03-22T04:26:36.629Z,11.80
2023-03-22T04:29:32.202Z,11.80
2023-03-22T04:32:22.901Z,11.80
2023-03-22T04:34:53.197Z,11.80
2023-03-22T04:37:24.497Z,11.80
2023-03-22T04:40:16.876Z,11.90
2023-03-22T04:43:05.927Z,11.90
2023-03-22T04:45:58.443Z,11.90
2023-03-22T04:48:33.366Z,11.90
2023-03-22T04:51:04.248Z,11.90
2023-03-22T04:53:39.515Z,11.90
2023-03-22T04:56:11.253Z,11.90
2023-03-22T04:58:41.140Z,11.90
2023-03-22T05:01:12.419Z,11.90
2023-03-22T05:03:45.484Z,11.90
2023-03-22T05:06:15.812Z,11.90
2023-03-22T05:08:58.480Z,11.90
2023-03-22T05:11:28.089Z,11.90
2023-03-22T05:14:19.147Z,11.90
2023-03-22T05:16:49.312Z,11.90
2023-03-22T05:19:19.369Z,11.90
2023-03-22T05:21:57.992Z,11.90
2023-03-22T05:24:36.074Z,11.90
2023-03-22T05:27:04.649Z,11.90
2023-03-22T05:29:37.218Z,12.00
2023-03-22T05:32:13.944Z,11.90
2023-03-22T05:34:45.499Z,12.00
2023-03-22T05:37:25.425Z,12.00
2023-03-22T05:39:57.698Z,12.00
2023-03-22T05:42:34.934Z,11.90
2023-03-22T05:45:06.653Z,11.90
2023-03-22T05:47:39.459Z,11.90
2023-03-22T05:50:17.366Z,12.00
2023-03-22T05:52:46.006Z,12.00
2023-03-22T05:55:22.357Z,12.00
2023-03-22T05:57:57.415Z,11.90
2023-03-22T06:00:28.617Z,11.90
2023-03-22T06:03:31.263Z,12.00
2023-03-22T06:06:11.831Z,12.00
2023-03-22T06:08:47.520Z,12.00
2023-03-22T06:11:16.093Z,12.00
2023-03-22T06:13:44.495Z,11.90
2023-03-22T06:16:14.010Z,11.90
2023-03-22T06:18:45.766Z,11.90
2023-03-22T06:21:14.397Z,11.90
2023-03-22T06:23:43.708Z,11.90
2023-03-22T06:26:12.841Z,11.90
2023-03-22T06:28:42.939Z,11.80
2023-03-22T06:31:14.781Z,11.80
2023-03-22T06:34:05.265Z,11.80
2023-03-22T06:36:44.940Z,11.80
2023-03-22T06:39:17.209Z,11.80
2023-03-22T06:41:47.109Z,11.80
2023-03-22T06:44:16.080Z,11.80
2023-03-22T06:47:56.244Z,11.80
2023-03-22T06:52:17.535Z,11.80
2023-03-22T06:55:03.511Z,11.80
2023-03-22T06:57:52.945Z,11.80
2023-03-22T07:00:43.790Z,11.80
2023-03-22T07:03:34.653Z,11.80
2023-03-22T07:06:24.509Z,11.80
2023-03-22T07:09:44.946Z,11.80
2023-03-22T07:12:15.482Z,11.80
2023-03-22T07:15:24.909Z,11.80
2023-03-22T07:18:34.214Z,11.90
2023-03-22T07:21:54.954Z,11.90
2023-03-22T07:25:12.705Z,11.90
2023-03-22T07:28:17.216Z,11.90
2023-03-22T07:30:57.828Z,11.90
2023-03-22T07:33:28.377Z,11.90
2023-03-22T07:36:07.044Z,11.90
2023-03-22T07:38:48.282Z,11.90
2023-03-22T07:42:28.933Z,12.00
2023-03-22T07:45:18.804Z,12.00
2023-03-22T07:48:16.313Z,12.00
2023-03-22T07:50:57.565Z,11.90
2023-03-22T07:53:27.923Z,12.00
2023-03-22T07:55:56.643Z,12.00
2023-03-22T07:58:26.885Z,12.00
2023-03-22T08:00:55.660Z,12.00
2023-03-22T08:03:42.564Z,12.10
2023-03-22T08:06:26.210Z,12.10
2023-03-22T08:08:56.689Z,12.10
2023-03-22T08:11:25.668Z,12.10
2023-03-22T08:14:02.772Z,12.10
2023-03-22T08:16:50.517Z,12.10
2023-03-22T08:20:09.491Z,12.20
2023-03-22T08:22:48.357Z,12.20
2023-03-22T08:25:26.028Z,12.20
2023-03-22T08:27:57.889Z,12.30
2023-03-22T08:30:30.367Z,12.40
2023-03-22T08:36:50.418Z,12.50
2023-03-22T08:39:20.797Z,12.50
2023-03-22T08:42:11.421Z,12.50
2023-03-22T08:44:40.408Z,12.50
2023-03-22T08:47:11.063Z,12.50
2023-03-22T08:49:41.926Z,12.50
2023-03-22T08:52:24.265Z,12.50
2023-03-22T08:54:56.228Z,12.50
2023-03-22T08:57:50.480Z,12.50
2023-03-22T09:00:42.318Z,12.50
2023-03-22T09:03:25.221Z,12.50
2023-03-22T09:05:54.538Z,12.60
2023-03-22T09:08:25.390Z,12.60
2023-03-22T09:11:00.590Z,12.70
2023-03-22T09:13:31.821Z,12.80
2023-03-22T09:16:04.225Z,12.80
2023-03-22T09:18:36.318Z,12.80
2023-03-22T09:21:13.139Z,12.90
2023-03-22T09:24:05.198Z,12.80
2023-03-22T09:26:41.960Z,12.80
2023-03-22T09:29:11.060Z,12.80
2023-03-22T09:31:41.733Z,12.80
2023-03-22T09:34:20.938Z,12.80
2023-03-22T09:36:49.821Z,12.80
2023-03-22T09:39:22.736Z,12.80
2023-03-22T09:41:58.733Z,12.80
2023-03-22T09:44:31.775Z,12.80
2023-03-22T09:47:02.222Z,12.80
2023-03-22T09:49:52.621Z,12.80
2023-03-22T09:52:22.175Z,12.80
2023-03-22T09:54:53.039Z,12.90
2023-03-22T09:57:30.353Z,12.80
2023-03-22T10:00:11.741Z,12.80
2023-03-22T10:02:54.660Z,12.80
2023-03-22T10:05:31.897Z,12.80
2023-03-22T10:08:32.130Z,12.70
2023-03-22T10:11:01.690Z,12.70
2023-03-22T10:13:36.632Z,12.80
2023-03-22T10:16:08.353Z,12.70
2023-03-22T10:18:40.153Z,12.70
2023-03-22T10:21:12.580Z,12.70
2023-03-22T10:23:45.900Z,12.80
2023-03-22T10:26:21.365Z,12.80
2023-03-22T10:28:56.990Z,12.90
2023-03-22T10:31:28.124Z,12.90
2023-03-22T10:34:00.363Z,12.90
2023-03-22T10:36:35.062Z,12.90
2023-03-22T10:39:11.930Z,12.90
2023-03-22T10:41:41.694Z,12.90
2023-03-22T10:44:16.151Z,13.00
2023-03-22T10:46:45.625Z,13.00
2023-03-22T10:49:20.430Z,13.00
2023-03-22T10:51:52.782Z,13.00
2023-03-22T10:54:24.608Z,12.90
2023-03-22T10:56:54.638Z,13.00
2023-03-22T10:59:49.445Z,12.90
2023-03-22T11:02:23.630Z,12.90
2023-03-22T11:04:55.192Z,12.90
2023-03-22T11:07:35.131Z,12.90
2023-03-22T11:10:27.561Z,12.90
2023-03-22T11:13:11.587Z,12.90
2023-03-22T11:15:43.500Z,12.90
2023-03-22T11:18:16.332Z,13.00
2023-03-22T11:20:56.840Z,12.90
2023-03-22T11:23:28.636Z,12.90
2023-03-22T11:26:01.108Z,12.90
2023-03-22T11:28:35.478Z,12.90
2023-03-22T11:31:07.950Z,12.90
2023-03-22T11:33:37.966Z,12.90
2023-03-22T11:36:17.729Z,12.90
2023-03-22T11:38:48.913Z,12.90
2023-03-22T11:41:24.306Z,12.90
2023-03-22T11:43:55.466Z,12.90
2023-03-22T11:46:25.000Z,12.90
2023-03-22T11:49:00.853Z,13.00
2023-03-22T11:51:33.449Z,13.00
2023-03-22T11:54:10.328Z,13.00
2023-03-22T11:56:49.374Z,13.00
2023-03-22T11:59:24.753Z,13.00
2023-03-22T12:01:59.441Z,13.00
2023-03-22T12:04:31.048Z,13.00
2023-03-22T12:07:02.476Z,12.90
2023-03-22T12:09:41.377Z,13.00
2023-03-22T12:12:17.936Z,13.00
2023-03-22T12:14:55.098Z,13.00
2023-03-22T12:17:35.045Z,13.00
2023-03-22T12:20:17.565Z,13.00
2023-03-22T12:22:52.861Z,13.00
2023-03-22T12:25:27.057Z,13.00
2023-03-22T12:27:58.316Z,13.10
2023-03-22T12:30:29.416Z,13.00
2023-03-22T12:33:02.927Z,13.10
2023-03-22T12:35:35.499Z,13.10
2023-03-22T12:38:13.675Z,13.10
2023-03-22T12:40:44.756Z,13.10
2023-03-22T12:43:18.008Z,13.10
2023-03-22T12:45:57.445Z,13.10
2023-03-22T12:48:33.589Z,13.10
2023-03-22T12:51:06.856Z,13.10
2023-03-22T12:53:44.143Z,13.10
2023-03-22T12:56:17.773Z,13.10
2023-03-22T12:58:51.908Z,13.10
2023-03-22T13:01:26.650Z,13.20
2023-03-22T13:03:57.689Z,13.20
2023-03-22T13:06:57.671Z,13.20
2023-03-22T13:09:41.594Z,13.20
2023-03-22T13:12:34.924Z,13.20
2023-03-22T13:15:23.819Z,13.20
2023-03-22T13:17:59.123Z,13.20
2023-03-22T13:20:30.921Z,13.20
2023-03-22T13:23:10.818Z,13.20
2023-03-22T13:25:41.488Z,13.20
2023-03-22T13:28:27.360Z,13.20
2023-03-22T13:30:58.246Z,13.20
2023-03-22T13:33:28.938Z,13.10
2023-03-22T13:36:00.309Z,13.20
2023-03-22T13:38:37.149Z,13.20
2023-03-22T13:41:20.651Z,13.20
2023-03-22T13:43:53.431Z,13.10
2023-03-22T13:46:43.933Z,13.10
2023-03-22T13:49:51.401Z,13.10
2023-03-22T13:52:29.566Z,13.10
2023-03-22T13:54:59.692Z,13.00
2023-03-22T13:57:59.142Z,13.00
2023-03-22T14:00:44.866Z,13.00
2023-03-22T14:03:18.503Z,13.00
2023-03-22T14:05:49.779Z,13.00
2023-03-22T14:08:25.127Z,13.00
2023-03-22T14:10:59.673Z,13.00
2023-03-22T14:13:34.151Z,13.00
2023-03-22T14:16:11.077Z,12.90
2023-03-22T14:18:44.093Z,13.00
2023-03-22T14:21:18.806Z,12.90
